Terminal Aerodrome Forecast
Issued by NWS

Home | Current Version | Previous Version | Text Only | Print | Product List | Glossary On
Versions: 1 2 3 4 5 6 7 8 9 10 11 12 13 14 15 16 17 18 19 20 21
000
FTUS42 KMLB 232330
TAFFPR
TAF
KFPR 232330Z 2400/2424 VRB06KT P6SM VCSH SCT045 OVC070
      TEMPO 2400/2402 6SM -SHRA BKN040
     FM240900 22003KT P6SM FEW015 SCT060 BKN250
     FM241400 24008KT P6SM BKN025
     FM241800 26009KT P6SM VCSH BKN035 BKN060=

USA.gov is the U.S. government's official web portal to all federal, state and local government web resources and services.